Wednesday, December 19, 2018, 10:49 AM EST
Back to Local

KBUF, Greater Buffalo International Airport

Location: Buffalo, NY, United States Lat: 42.933
Local Time: 10:49 AM EST (15:49 GMT) Lon: -78.733
Time Zone: US/Eastern Elev: 725 ft

Show me the last for .
Show Decoded

2018-12-19 09:54 METAR KBUF 191454Z 21009KT 10SM FEW070 FEW150 FEW200 BKN250 02/M05 A3005 RMK AO2
                 SLP185 T00171050 53003 =
2018-12-19 08:54 METAR KBUF 191354Z 20010KT 10SM FEW070 FEW150 FEW200 BKN250 00/M06 A3004 RMK AO2
                 SLP184 T00001056 =
2018-12-19 07:54 METAR KBUF 191254Z 20009KT 10SM SCT200 BKN250 M02/M06 A3004 RMK AO2 SLP182
                 T10171061 =
2018-12-19 06:54 METAR KBUF 191154Z 20010KT 10SM FEW200 M02/M06 A3004 RMK AO2 SLP183 T10221056
                 11022 21044 57007 =
2018-12-19 05:54 METAR KBUF 191054Z 20010KT 10SM SCT200 M02/M06 A3005 RMK AO2 SLP187 T10221061 =
2018-12-19 04:54 METAR KBUF 190954Z 20008KT 10SM SCT200 M03/M06 A3005 RMK AO2 SLP186 T10281061 =
2018-12-19 03:54 METAR KBUF 190854Z 20010KT 10SM SCT200 M03/M06 A3006 RMK AO2 SLP190 T10281061
                 58009 =
2018-12-19 02:54 METAR KBUF 190754Z 20010KT 10SM FEW020 SCT200 M03/M06 A3008 RMK AO2 SLP195
                 T10331061 =
2018-12-19 01:54 METAR KBUF 190654Z 20008KT 10SM FEW020 SCT200 M03/M06 A3008 RMK AO2 SLP196
                 T10331061 =
2018-12-19 00:54 METAR KBUF 190554Z 19006KT 10SM FEW019 SCT200 M04/M07 A3009 RMK AO2 SLP201
                 T10441067 11028 21056 58016 =
2018-12-18 23:54 METAR KBUF 190454Z 18005KT 10SM FEW200 SCT250 M05/M07 A3011 RMK AO2 SLP207
                 T10501067 400001050 =
2018-12-18 22:54 METAR KBUF 190354Z 17004KT 10SM SCT270 M04/M07 A3013 RMK AO2 SLP215 T10441067 =
2018-12-18 21:54 METAR KBUF 190254Z 17005KT 10SM SCT250 SCT300 M04/M07 A3014 RMK AO2 SLP217
                 T10391067 58010 =
2018-12-18 20:54 METAR KBUF 190154Z 17005KT 10SM FEW250 FEW300 M04/M07 A3015 RMK AO2 SLP221
                 T10441067 =
2018-12-18 19:54 METAR KBUF 190054Z 17005KT 10SM FEW024 FEW250 FEW300 M04/M07 A3016 RMK AO2
                 SLP225 T10391067 =
2018-12-18 18:54 METAR KBUF 182354Z 22003KT 10SM FEW025 FEW250 FEW300 M03/M07 A3017 RMK AO2
                 SLP227 T10281067 11011 21033 58006 =
2018-12-18 17:54 METAR KBUF 182254Z 24005KT 10SM FEW021 FEW250 SCT300 M03/M07 A3018 RMK AO2
                 SLP231 T10281067 =
2018-12-18 16:54 METAR KBUF 182154Z 22006KT 10SM FEW025 FEW250 SCT300 M03/M07 A3019 RMK AO2
                 SLP234 T10281072 =
2018-12-18 15:54 METAR KBUF 182054Z 26009KT 10SM FEW029 FEW220 FEW270 FEW350 M02/M08 A3019 RMK
                 AO2 SLP232 T10171083 55002 =
2018-12-18 14:54 METAR KBUF 181954Z 31007KT 10SM FEW027 FEW200 FEW250 FEW350 M01/M08 A3018 RMK
                 AO2 SLP229 T10111083 =
2018-12-18 13:54 METAR KBUF 181854Z 26009KT 10SM FEW027 FEW250 FEW350 M02/M09 A3018 RMK AO2
                 SLP229 T10221089 =
2018-12-18 12:54 METAR KBUF 181754Z 27007KT 10SM SCT027 SCT350 M03/M09 A3019 RMK AO2 SLP233 60000
                 T10331094 11022 21044 58013 =
2018-12-18 12:30 METAR KBUF 181730Z 29007KT 10SM SCT027 SCT350 M02/M08 A3019 RMK AO2 T10221083 =
2018-12-18 11:54 METAR KBUF 181654Z 30007KT 10SM BKN025 BKN350 M03/M09 A3021 RMK AO2 SLP239
                 T10331094 =
2018-12-18 10:54 METAR KBUF 181554Z 34005KT 10SM FEW018 BKN027 M04/M08 A3022 RMK AO2 SLP244
                 T10391083 =

Support USWX by starting your Amazon purchase here.